Edzard Schulte — 2CVX9 — position and weather

sailwx.info

Track history (hours):
 
Tides and Currents Weather Stations Pressure Air Temp Water Temp Dewpoint Dewpoint Depression Visibility Wind Speed Wind Dir Waves Ship Positions

Edzard Schulte

Last reported at 2014-Aug-21 00:33 UTC. Time now 2014-Aug-22 19:42 UTC.
Position N 36°02' W 005°19'.

Length 145 m; draft 6.5 m.

Type: Tanker. MMSI: 235076245.

Date/timePositionNaut miles runAvg speedWind from/ knotsBaromVisibWave heightAir tempDewpointWater temp
2014-Aug-21 00:33N 36°02' W 005°19'22211.7
2014-Aug-20 05:32N 37°08' W 000°55'9813.2
2014-Aug-19 22:08N 38°25' E 000°22'5112.9
2014-Aug-19 18:12N 39°08' E 000°56'913.3
2014-Aug-19 17:33N 39°16' E 001°02'3913.1
2014-Aug-19 14:33N 39°51' E 001°25'1313.1
2014-Aug-19 13:33N 40°03' E 001°32'1313.4
2014-Aug-19 12:33N 40°15' E 001°38'1313.5
2014-Aug-19 11:33N 40°28' E 001°45'1313.4
2014-Aug-19 10:33N 40°40' E 001°51'1414.1
2014-Aug-19 09:33N 40°53' E 001°58'1313.4
2014-Aug-19 08:33N 41°05' E 002°06'1411.3
2014-Aug-19 07:21N 41°19' E 002°10'4 0.2
2014-Aug-18 07:33N 41°16' E 002°14'1110.0
2014-Aug-18 06:29N 41°18' E 002°28'1010.8
2014-Aug-18 05:32N 41°22' E 002°40'1111.0
2014-Aug-18 04:31N 41°25' E 002°55'1211.2
2014-Aug-18 03:29N 41°29' E 003°10'1111.7
2014-Aug-18 02:33N 41°33' E 003°23'1312.1
2014-Aug-18 01:31N 41°43' E 003°32'1212.0
2014-Aug-18 00:33N 41°53' E 003°42'7412.3
2014-Aug-17 18:33N 42°52' E 004°41'1211.9
2014-Aug-17 17:34N 43°01' E 004°51'1212.1
2014-Aug-17 16:33N 43°11' E 005°00'1111.4
2014-Aug-17 15:34N 43°22' E 004°57'2 1.5
2014-Aug-17 14:31N 43°24' E 004°57'0 0.0
2014-Aug-17 13:31N 43°24' E 004°57'0 0.0
2014-Aug-17 12:31N 43°24' E 004°57'0 0.0
2014-Aug-17 11:31N 43°24' E 004°57'0 0.0
2014-Aug-17 10:31N 43°24' E 004°57'0 0.0
2014-Aug-17 09:31N 43°24' E 004°57'0 0.0
2014-Aug-17 08:31N 43°24' E 004°57'0 0.0
2014-Aug-17 07:31N 43°24' E 004°57'0 0.0
2014-Aug-17 06:31N 43°24' E 004°57'0 0.0
2014-Aug-17 05:31N 43°24' E 004°57'0 0.0
2014-Aug-17 04:31N 43°24' E 004°57'0 0.0
2014-Aug-17 03:31N 43°24' E 004°57'0 0.0
2014-Aug-17 02:31N 43°24' E 004°57'0 0.0
2014-Aug-17 01:31N 43°24' E 004°57'0 0.0
2014-Aug-17 00:31N 43°24' E 004°57'0 0.0
2014-Aug-16 23:31N 43°24' E 004°57'0 0.0
2014-Aug-16 22:31N 43°24' E 004°57'0 0.0
2014-Aug-16 21:31N 43°24' E 004°57'0 0.0
2014-Aug-16 20:31N 43°24' E 004°57'0 0.1
2014-Aug-16 19:33N 43°24' E 004°56'2 2.3
2014-Aug-16 18:33N 43°24' E 004°60'0 0.0
2014-Aug-16 14:32N 43°24' E 004°60'0 0.0
2014-Aug-16 13:32N 43°24' E 004°60'0 0.0
2014-Aug-16 12:32N 43°24' E 004°60'0 0.0
2014-Aug-16 11:32N 43°24' E 004°60'2 0.1
2014-Aug-15 09:33N 43°22' E 004°58'7 7.2
2014-Aug-15 08:33N 43°16' E 005°01'10 9.6
2014-Aug-15 07:34N 43°06' E 004°60'1211.7
2014-Aug-15 06:33N 42°56' E 004°50'1211.8
2014-Aug-15 05:33N 42°47' E 004°41'1111.2
2014-Aug-15 04:33N 42°38' E 004°31'1111.3
2014-Aug-15 03:33N 42°29' E 004°22'1111.2
2014-Aug-15 02:33N 42°20' E 004°13'1111.1
2014-Aug-15 01:33N 42°12' E 004°04'1111.4
2014-Aug-15 00:34N 42°02' E 003°55'1111.2
2014-Aug-14 23:33N 41°53' E 003°46'1111.5
2014-Aug-14 22:33N 41°44' E 003°36'1212.0
2014-Aug-14 21:33N 41°35' E 003°27'1211.6
2014-Aug-14 20:33N 41°25' E 003°17'1212.2
2014-Aug-14 19:33N 41°16' E 003°08'1312.9
2014-Aug-14 18:33N 41°06' E 002°57'9213.1
2014-Aug-14 11:33N 39°52' E 001°44'1312.6
2014-Aug-14 10:33N 39°42' E 001°34'1312.7
2014-Aug-14 09:30N 39°32' E 001°24'13412.2
2014-Aug-13 22:33N 37°45' W 000°19'2711.0
2014-Aug-13 20:06N 37°30' W 000°48'  
2014-Aug-11 14:32N 37°34' W 000°60'2311.2
2014-Aug-11 12:27N 37°13' W 001°11'1112.2
2014-Aug-11 11:33N 37°02' W 001°16'2611.8
2014-Aug-11 09:23N 36°41' W 001°34'1212.0
2014-Aug-11 08:24N 36°35' W 001°46'  
Track history (hours):
 
Tides and Currents Weather Stations Pressure Air Temp Water Temp Dewpoint Dewpoint Depression Visibility Wind Speed Wind Dir Waves Ship Positions

Edzard Schulte

Last reported at 2014-Aug-21 00:33 UTC. Time now 2014-Aug-22 19:42 UTC.
Position N 36°02' W 005°19'.

Length 145 m; draft 6.5 m.

Type: Tanker. MMSI: 235076245.

Date/timePositionNaut miles runAvg speedWind from/ knotsBaromVisibWave heightAir tempDewpointWater temp
2014-Aug-21 00:33N 36°02' W 005°19'22211.7
2014-Aug-20 05:32N 37°08' W 000°55'9813.2
2014-Aug-19 22:08N 38°25' E 000°22'5112.9
2014-Aug-19 18:12N 39°08' E 000°56'913.3
2014-Aug-19 17:33N 39°16' E 001°02'3913.1
2014-Aug-19 14:33N 39°51' E 001°25'1313.1
2014-Aug-19 13:33N 40°03' E 001°32'1313.4
2014-Aug-19 12:33N 40°15' E 001°38'1313.5
2014-Aug-19 11:33N 40°28' E 001°45'1313.4
2014-Aug-19 10:33N 40°40' E 001°51'1414.1
2014-Aug-19 09:33N 40°53' E 001°58'1313.4
2014-Aug-19 08:33N 41°05' E 002°06'1411.3
2014-Aug-19 07:21N 41°19' E 002°10'4 0.2
2014-Aug-18 07:33N 41°16' E 002°14'1110.0
2014-Aug-18 06:29N 41°18' E 002°28'1010.8
2014-Aug-18 05:32N 41°22' E 002°40'1111.0
2014-Aug-18 04:31N 41°25' E 002°55'1211.2
2014-Aug-18 03:29N 41°29' E 003°10'1111.7
2014-Aug-18 02:33N 41°33' E 003°23'1312.1
2014-Aug-18 01:31N 41°43' E 003°32'1212.0
2014-Aug-18 00:33N 41°53' E 003°42'7412.3
2014-Aug-17 18:33N 42°52' E 004°41'1211.9
2014-Aug-17 17:34N 43°01' E 004°51'1212.1
2014-Aug-17 16:33N 43°11' E 005°00'1111.4
2014-Aug-17 15:34N 43°22' E 004°57'2 1.5
2014-Aug-17 14:31N 43°24' E 004°57'0 0.0
2014-Aug-17 13:31N 43°24' E 004°57'0 0.0
2014-Aug-17 12:31N 43°24' E 004°57'0 0.0
2014-Aug-17 11:31N 43°24' E 004°57'0 0.0
2014-Aug-17 10:31N 43°24' E 004°57'0 0.0
2014-Aug-17 09:31N 43°24' E 004°57'0 0.0
2014-Aug-17 08:31N 43°24' E 004°57'0 0.0
2014-Aug-17 07:31N 43°24' E 004°57'0 0.0
2014-Aug-17 06:31N 43°24' E 004°57'0 0.0
2014-Aug-17 05:31N 43°24' E 004°57'0 0.0
2014-Aug-17 04:31N 43°24' E 004°57'0 0.0
2014-Aug-17 03:31N 43°24' E 004°57'0 0.0
2014-Aug-17 02:31N 43°24' E 004°57'0 0.0
2014-Aug-17 01:31N 43°24' E 004°57'0 0.0
2014-Aug-17 00:31N 43°24' E 004°57'0 0.0
2014-Aug-16 23:31N 43°24' E 004°57'0 0.0
2014-Aug-16 22:31N 43°24' E 004°57'0 0.0
2014-Aug-16 21:31N 43°24' E 004°57'0 0.0
2014-Aug-16 20:31N 43°24' E 004°57'0 0.1
2014-Aug-16 19:33N 43°24' E 004°56'2 2.3
2014-Aug-16 18:33N 43°24' E 004°60'0 0.0
2014-Aug-16 14:32N 43°24' E 004°60'0 0.0
2014-Aug-16 13:32N 43°24' E 004°60'0 0.0
2014-Aug-16 12:32N 43°24' E 004°60'0 0.0
2014-Aug-16 11:32N 43°24' E 004°60'2 0.1
2014-Aug-15 09:33N 43°22' E 004°58'7 7.2
2014-Aug-15 08:33N 43°16' E 005°01'10 9.6
2014-Aug-15 07:34N 43°06' E 004°60'1211.7
2014-Aug-15 06:33N 42°56' E 004°50'1211.8
2014-Aug-15 05:33N 42°47' E 004°41'1111.2
2014-Aug-15 04:33N 42°38' E 004°31'1111.3
2014-Aug-15 03:33N 42°29' E 004°22'1111.2
2014-Aug-15 02:33N 42°20' E 004°13'1111.1
2014-Aug-15 01:33N 42°12' E 004°04'1111.4
2014-Aug-15 00:34N 42°02' E 003°55'1111.2
2014-Aug-14 23:33N 41°53' E 003°46'1111.5
2014-Aug-14 22:33N 41°44' E 003°36'1212.0
2014-Aug-14 21:33N 41°35' E 003°27'1211.6
2014-Aug-14 20:33N 41°25' E 003°17'1212.2
2014-Aug-14 19:33N 41°16' E 003°08'1312.9
2014-Aug-14 18:33N 41°06' E 002°57'9213.1
2014-Aug-14 11:33N 39°52' E 001°44'1312.6
2014-Aug-14 10:33N 39°42' E 001°34'1312.7
2014-Aug-14 09:30N 39°32' E 001°24'13412.2
2014-Aug-13 22:33N 37°45' W 000°19'2711.0
2014-Aug-13 20:06N 37°30' W 000°48'  
2014-Aug-11 14:32N 37°34' W 000°60'2311.2
2014-Aug-11 12:27N 37°13' W 001°11'1112.2
2014-Aug-11 11:33N 37°02' W 001°16'2611.8
2014-Aug-11 09:23N 36°41' W 001°34'1212.0
2014-Aug-11 08:24N 36°35' W 001°46'  

Dump ship's entire track history